Πλησιέστερες Αναφορές METAR

 

LGTS - Thessaloniki/Makedonia-Elev 7m
Απόσταση από σταθμό: Ν 13km
Ενημερώθηκε: 23/10/2019 00:50
Αίθριος
Αίθριος
 Ανεμοι από μεταβλητός
Ανεμος: μεταβλητός 6 km/h
Θερμοκρασία: 16°C
Σημείο Δρόσου: 12°C
Υγρασία: 77%
Βαρόμετρο: 1023 hPa
Περίληψη: Αίθριος
Ορατότητα: πάνω από 10 km
2019/10/22 21:50 LGTS 222150Z VRB03KT CAVOK 16/12 Q1023 NOSIG
LGAV - Athens/Elef. Venizelos-Elev 94m
Απόσταση από σταθμό: ΝΝΑ 312km
Ενημερώθηκε: 23/10/2019 00:50
Αίθριος
Αίθριος
 Ανεμοι από ΒΒΑ
Ανεμος: ΒΒΑ 39 km/h
Θερμοκρασία: 20°C
Σημείο Δρόσου: 12°C
Υγρασία: 60%
Βαρόμετρο: 1019 hPa
Περίληψη: Αίθριος
Ορατότητα: πάνω από 10 km
2019/10/22 21:50 LGAV 222150Z 03021KT CAVOK 20/12 Q1019 NOSIG
 
LGAL - Alexandroupolis-Elev 3m
Απόσταση από σταθμό: Α 251km
Ενημερώθηκε: 22/10/2019 22:20
ΜΗ Ενημερωμένο METAR!
Αίθριος
Αίθριος
 Ανεμοι από μεταβλητός
Ανεμος: μεταβλητός 4 km/h
Θερμοκρασία: 15°C
Σημείο Δρόσου: 14°C
Υγρασία: 94%
Βαρόμετρο: 1022 hPa
Περίληψη: Αίθριος
Ορατότητα: πάνω από 10 km
2019/10/22 19:20 LGAL 221920Z VRB02KT CAVOK 15/14 Q1022
LGKV - Kavala/Crysoupolis-Elev 5m
Απόσταση από σταθμό: ΑΒΑ 144km
Ενημερώθηκε: 22/10/2019 22:50
ΜΗ Ενημερωμένο METAR!
Αίθριος
Αίθριος
 Ανεμοι από ΒΑ
Ανεμος: ΒΑ 6 km/h
Θερμοκρασία: 14°C
Σημείο Δρόσου: 13°C
Υγρασία: 94%
Βαρόμετρο: 1022 hPa
Περίληψη: Αίθριος
Ορατότητα: πάνω από 10 km
2019/10/22 19:50 LGKV 221950Z 05003KT CAVOK 14/13 Q1022
 
LGSK - Skiathos Island-Elev 15m
Απόσταση από σταθμό: ΝΝΑ 168km
Ενημερώθηκε: 22/10/2019 20:50
ΜΗ Ενημερωμένο METAR!
Διάσπαρτα Νέφη
Διάσπαρτα Νέφη
 Ανεμοι από ΒΑ
Ανεμος: ΒΑ 9 km/h
Θερμοκρασία: 19°C
Σημείο Δρόσου: 16°C
Υγρασία: 83%
Βαρόμετρο: 1020 hPa
Νέφωση: Διάσπαρτα Νέφη
Ορατότητα: 10 km
Λεπτομέρειες Νεφών: Διάσπαρτα Νέφη 610 m
2019/10/22 17:50 LGSK 221750Z 04005KT 9999 FEW020 19/16 Q1020
LGLM - Limnos Island-Elev 5m
Απόσταση από σταθμό: ΑΝΑ 210km
Ενημερώθηκε: 23/10/2019 00:50
Αίθριος
Αίθριος
 Ανεμοι από ΒΑ
Ανεμος: ΒΑ 11 km/h
Θερμοκρασία: 18°C
Σημείο Δρόσου: 15°C
Υγρασία: 83%
Βαρόμετρο: 1020 hPa
Περίληψη: Αίθριος
Ορατότητα: πάνω από 10 km
2019/10/22 21:50 LGLM 222150Z 05006KT CAVOK 18/15 Q1020
 
LGMT - Mitilini Island-Elev 17m
Απόσταση από σταθμό: ΑΝΑ 358km
Ενημερώθηκε: 22/10/2019 22:50
ΜΗ Ενημερωμένο METAR!
Αίθριος
Αίθριος
 Ανεμοι από ΒΒΔ
Ανεμος: ΒΒΔ 20 km/h
Θερμοκρασία: 20°C
Σημείο Δρόσου: 15°C
Υγρασία: 73%
Βαρόμετρο: 1019 hPa
Περίληψη: Αίθριος
Ορατότητα: πάνω από 10 km
2019/10/22 19:50 LGMT 221950Z 34011KT 300V010 CAVOK 20/15 Q1019
LGSY - Skiros Island-Elev 15m
Απόσταση από σταθμό: ΝΑ 227km
Ενημερώθηκε: 23/10/2019 00:50

 Ανεμοι από ΒΒΑ
Ανεμος: ΒΒΑ 28 km/h
Θερμοκρασία: 20°C
Σημείο Δρόσου: 14°C
Υγρασία: 69%
Βαρόμετρο: 1020 hPa
2019/10/22 21:50 LGSY 222150Z AUTO 03015KT //// // ////// 20/14 Q1020 RE//
 
LGKZ - Kozani-Elev 628m
Απόσταση από σταθμό: ΔΝΔ 102km
Ενημερώθηκε: 23/10/2019 00:50

 Ανεμοι από Β
Ανεμος: Β 9 km/h
Θερμοκρασία: 13°C
Σημείο Δρόσου: 1°C
Υγρασία: 44%
Βαρόμετρο: 1024 hPa
2019/10/22 21:50 LGKZ 222150Z AUTO 36005KT //// // ////// 13/01 Q1024 RE//
LGIO - Ioannina-Elev 476m
Απόσταση από σταθμό: ΔΝΔ 209km
Ενημερώθηκε: 23/10/2019 00:50

 Ανεμοι από ΝΔ
Ανεμος: ΝΔ 7 km/h
Θερμοκρασία: 16°C
Σημείο Δρόσου: 7°C
Υγρασία: 55%
Βαρόμετρο: 1022 hPa
2019/10/22 21:50 LGIO 222150Z AUTO 23004KT 030V260 //// // ////// 16/07 Q1022 RE//
 
LGZA - Zakinthos-Elev 3m
Απόσταση από σταθμό: ΝΝΔ 367km
Ενημερώθηκε: 22/10/2019 21:20
ΜΗ Ενημερωμένο METAR!
Αίθριος
Αίθριος
 Ανεμοι από ΒΒΔ
Ανεμος: ΒΒΔ 9 km/h
Θερμοκρασία: 20°C
Σημείο Δρόσου: 14°C
Υγρασία: 69%
Βαρόμετρο: 1018 hPa
Περίληψη: Αίθριος
Ορατότητα: πάνω από 10 km
2019/10/22 18:20 LGZA 221820Z 33005KT CAVOK 20/14 Q1018
LGKR - Corfu Island-Elev 2m
Απόσταση από σταθμό: ΔΝΔ 282km
Ενημερώθηκε: 23/10/2019 00:50
Αίθριος
Αίθριος
 Ανεμοι από άπνοια
Ανεμος: άπνοια
Θερμοκρασία: 18°C
Σημείο Δρόσου: 15°C
Υγρασία: 83%
Βαρόμετρο: 1019 hPa
Περίληψη: Αίθριος
Ορατότητα: πάνω από 10 km
2019/10/22 21:50 LGKR 222150Z 00000KT CAVOK 18/15 Q1019 NOSIG
 
LGSO - Syros Island-Elev 72m
Απόσταση από σταθμό: ΝΝΑ 397km
Ενημερώθηκε: 23/10/2019 00:50
Ασθενής βροχή
Ασθενής βροχή
 Ανεμοι από ΒΒΔ
Ανεμος: ΒΒΔ 31 km/h
Θερμοκρασία: 20°C
Σημείο Δρόσου: 15°C
Υγρασία: 73%
Βαρόμετρο: 1017 hPa
Περίληψη: Ασθενής βροχή
2019/10/22 21:50 LGSO 222150Z AUTO 34017KT //// -RA ////// 20/15 Q1017 RE//
LGMK - Mikonos Island-Elev 123m
Απόσταση από σταθμό: ΝΝΑ 412km
Ενημερώθηκε: 22/10/2019 23:50
Διάσπαρτα Νέφη
Διάσπαρτα Νέφη
 Ανεμοι από Β
Ανεμος: Β 22 km/h
Θερμοκρασία: 19°C
Σημείο Δρόσου: 16°C
Υγρασία: 83%
Βαρόμετρο: 1017 hPa
Νέφωση: Διάσπαρτα Νέφη
Ορατότητα: 10 km
Λεπτομέρειες Νεφών: Διάσπαρτα Νέφη 244 m
2019/10/22 20:50 LGMK 222050Z 35012KT 9999 FEW008 19/16 Q1017
 
LGSR - Santorini Island-Elev 40m
Απόσταση από σταθμό: ΝΝΑ 520km
Ενημερώθηκε: 23/10/2019 00:50
Διάσπαρτα Νέφη
Διάσπαρτα Νέφη
 Ανεμοι από ΒΒΔ
Ανεμος: ΒΒΔ 17 km/h
Θερμοκρασία: 20°C
Σημείο Δρόσου: 17°C
Υγρασία: 83%
Βαρόμετρο: 1016 hPa
Νέφωση: Διάσπαρτα Νέφη
Ορατότητα: 10 km
Λεπτομέρειες Νεφών: Διάσπαρτα Νέφη 762 m
2019/10/22 21:50 LGSR 222150Z 34009KT 9999 FEW025 20/17 Q1016
LGKL - Kalamata-Elev 8m
Απόσταση από σταθμό: Ν 405km
Ενημερώθηκε: 23/10/2019 00:50

 Ανεμοι από Β
Ανεμος: Β 9 km/h
Θερμοκρασία: 19°C
Σημείο Δρόσου: 5°C
Υγρασία: 40%
Βαρόμετρο: 1018 hPa
2019/10/22 21:50 LGKL 222150Z AUTO 36005KT 300V010 //// // ////// 19/05 Q1018 RE//
 
LGIR - Iraklion/Crete-Elev 5m
Απόσταση από σταθμό: ΝΝΑ 622km
Ενημερώθηκε: 23/10/2019 00:50
Μερικώς νεφελώδης
Μερικώς νεφελώδης
 Ανεμοι από ΔΒΔ
Ανεμος: ΔΒΔ 19 km/h
Θερμοκρασία: 21°C
Σημείο Δρόσου: 17°C
Υγρασία: 78%
Βαρόμετρο: 1016 hPa
Νέφωση: Μερικώς νεφελώδης
Ορατότητα: 10 km
Λεπτομέρειες Νεφών: Διάσπαρτα Νέφη 549 m
Μερικώς νεφελώδης 610 m
2019/10/22 21:50 LGIR 222150Z 30010KT 9999 FEW018 SCT020 21/17 Q1016 NOSIG
LGRP - Rhodes-Elev 5m
Απόσταση από σταθμό: ΝΑ 649km
Ενημερώθηκε: 23/10/2019 00:50
Αίθριος
Αίθριος
 Ανεμοι από μεταβλητός
Ανεμος: μεταβλητός 0 km/h
Θερμοκρασία: 22°C
Σημείο Δρόσου: 15°C
Υγρασία: 65%
Βαρόμετρο: 1013 hPa
Περίληψη: Αίθριος
Ορατότητα: πάνω από 10 km
2019/10/22 21:50 LGRP 222150Z /////KT CAVOK 22/15 Q1013 NOSIG
 
LWOH - Ohrid/FYROM-Elev 761m
Απόσταση από σταθμό: ΔΒΔ 188km
Ενημερώθηκε: 22/10/2019 22:00
ΜΗ Ενημερωμένο METAR!
Αίθριος
Αίθριος
 Ανεμοι από Β
Ανεμος: Β 7 km/h
Θερμοκρασία: 12°C
Σημείο Δρόσου: 5°C
Υγρασία: 63%
Βαρόμετρο: 1024 hPa
Περίληψη: Αίθριος
Ορατότητα: πάνω από 10 km
2019/10/22 19:00 LWOH 221900Z 35004KT 300V030 CAVOK 12/05 Q1024
LBSF - Sofia/Bulgaria-Elev 595m
Απόσταση από σταθμό: Β 227km
Ενημερώθηκε: 23/10/2019 01:00
Αίθριος
Αίθριος
 Ανεμοι από Ν
Ανεμος: Ν 6 km/h
Θερμοκρασία: 9°C
Σημείο Δρόσου: 5°C
Υγρασία: 76%
Βαρόμετρο: 1025 hPa
Περίληψη: Αίθριος
Ορατότητα: πάνω από 10 km
2019/10/22 22:00 LBSF 222200Z 17003KT 140V220 CAVOK 09/05 Q1025 NOSIG